Time;durP1;ratioP1;P1;durP2;ratioP2;P2;SDS_P1;SDS_P2;PMS_P1;PMS_P2;Temp;Humidity;BMP_temperature;BMP_pressure;BME280_temperature;BME280_humidity;BME280_pressure;Samples;Min_cycle;Max_cycle;Signal;HPM_P1;HPM_P2
2022/04/27 00:02:04;;;;;;;19.33;12.05;;;4.90;99.90;;;;;;4933249;29;20048;-82
2022/04/27 00:04:30;;;;;;;19.17;13.02;;;4.00;99.90;;;;;;4917446;29;20127;-82
2022/04/27 00:06:56;;;;;;;15.57;11.73;;;4.10;99.90;;;;;;4933352;29;20126;-82
2022/04/27 00:09:21;;;;;;;15.82;10.88;;;4.00;99.90;;;;;;4931980;29;20419;-82
2022/04/27 00:11:47;;;;;;;20.13;11.65;;;5.30;99.90;;;;;;4933274;29;20507;-82
2022/04/27 00:14:13;;;;;;;17.27;12.13;;;3.90;99.90;;;;;;4932494;29;20047;-81
2022/04/27 00:16:38;;;;;;;20.65;11.43;;;3.90;99.90;;;;;;4917240;29;20056;-81
2022/04/27 00:19:04;;;;;;;18.77;12.13;;;4.60;99.90;;;;;;4933189;29;20055;-81
2022/04/27 00:21:30;;;;;;;20.48;12.85;;;3.90;99.90;;;;;;4932626;29;20048;-82
2022/04/27 00:23:55;;;;;;;19.20;12.50;;;3.90;99.90;;;;;;4932276;29;20054;-82
2022/04/27 00:26:21;;;;;;;18.45;11.60;;;3.80;99.90;;;;;;4933229;29;20066;-82
2022/04/27 00:28:47;;;;;;;20.92;12.95;;;4.10;99.90;;;;;;4932412;29;20400;-82
2022/04/27 00:31:12;;;;;;;18.17;12.23;;;3.80;99.90;;;;;;4933026;29;20401;-82
2022/04/27 00:33:38;;;;;;;17.65;12.77;;;3.80;99.90;;;;;;4916956;29;20432;-82
2022/04/27 00:36:04;;;;;;;15.57;11.93;;;4.30;99.90;;;;;;4932602;29;20058;-82
2022/04/27 00:38:29;;;;;;;20.83;11.27;;;3.70;99.90;;;;;;4933044;29;20059;-81
2022/04/27 00:40:55;;;;;;;18.38;11.40;;;4.50;99.90;;;;;;4932881;29;20048;-82
2022/04/27 00:43:38;;;;;;;19.08;13.20;;;3.70;99.90;;;;;;4934045;29;20052;-82
2022/04/27 00:46:03;;;;;;;18.23;12.05;;;3.70;99.90;;;;;;4917251;29;20135;-82
2022/04/27 00:48:29;;;;;;;16.52;12.02;;;4.10;99.90;;;;;;4938550;29;20138;-81
2022/04/27 00:50:56;;;;;;;17.55;11.63;;;3.60;99.90;;;;;;4943047;29;20055;-81
2022/04/27 00:53:22;;;;;;;19.05;12.40;;;3.60;99.90;;;;;;4917568;29;20051;-82
2022/04/27 00:55:48;;;;;;;18.17;13.32;;;3.70;99.90;;;;;;4923982;29;20110;-82
2022/04/27 00:58:13;;;;;;;20.27;13.55;;;3.60;99.90;;;;;;4939934;29;20059;-82
2022/04/27 01:00:39;;;;;;;21.17;13.70;;;3.70;99.90;;;;;;4920288;29;20048;-83
2022/04/27 01:03:05;;;;;;;21.95;14.00;;;4.30;99.90;;;;;;4918460;29;20048;-83
2022/04/27 01:05:30;;;;;;;25.27;14.40;;;3.60;99.90;;;;;;4932006;29;20051;-83
2022/04/27 01:08:00;;;;;;;20.42;14.25;;;4.40;99.90;;;;;;4900998;29;20156;-83
2022/04/27 01:10:27;;;;;;;22.17;16.02;;;3.60;99.90;;;;;;4933149;29;20047;-82
2022/04/27 01:12:54;;;;;;;18.90;14.02;;;4.70;99.90;;;;;;4917278;29;20059;-83
2022/04/27 01:15:32;;;;;;;19.30;13.43;;;3.50;99.90;;;;;;4915804;29;20055;-83
2022/04/27 01:17:58;;;;;;;21.60;14.15;;;3.50;99.90;;;;;;4916660;29;20385;-82
2022/04/27 01:20:24;;;;;;;21.80;13.95;;;4.30;99.90;;;;;;4916353;29;20059;-82
2022/04/27 01:22:50;;;;;;;20.58;13.75;;;3.50;99.90;;;;;;4932880;29;20059;-82
2022/04/27 01:25:16;;;;;;;23.25;13.80;;;3.60;99.90;;;;;;4916420;29;20066;-83
2022/04/27 01:27:42;;;;;;;22.25;13.90;;;3.50;99.90;;;;;;4932699;29;20088;-83
2022/04/27 01:30:10;;;;;;;24.60;13.93;;;3.50;99.90;;;;;;4916471;29;20052;-83
2022/04/27 01:32:36;;;;;;;24.02;14.25;;;3.50;99.90;;;;;;4931882;29;20130;-83
2022/04/27 01:35:02;;;;;;;18.92;14.00;;;4.10;99.90;;;;;;4932239;29;20396;-83
2022/04/27 01:40:12;;;;;;;21.55;13.45;;;3.50;99.90;;;;;;4953906;29;20068;-83
2022/04/27 01:42:38;;;;;;;20.27;13.57;;;4.30;99.90;;;;;;4948082;29;20048;-82
2022/04/27 01:45:04;;;;;;;19.40;13.27;;;4.50;99.90;;;;;;4937692;29;20067;-83
2022/04/27 01:47:30;;;;;;;22.35;14.10;;;3.60;99.90;;;;;;4935791;29;20047;-83
2022/04/27 01:49:55;;;;;;;20.48;13.60;;;3.60;99.90;;;;;;4919890;29;20052;-83
2022/04/27 01:55:06;;;;;;;18.90;13.45;;;3.70;99.90;;;;;;4935940;29;20122;-83
2022/04/27 01:57:32;;;;;;;18.83;13.38;;;3.80;99.90;;;;;;4919487;29;20068;-83
2022/04/27 01:59:58;;;;;;;22.02;14.18;;;3.80;99.90;;;;;;4936311;29;20109;-83
2022/04/27 02:02:23;;;;;;;18.23;13.45;;;3.90;99.90;;;;;;4935877;29;20099;-84
2022/04/27 02:04:49;;;;;;;20.20;13.43;;;4.10;99.90;;;;;;4936117;29;20091;-83
2022/04/27 02:07:15;;;;;;;22.80;14.18;;;4.00;99.90;;;;;;4937341;29;20062;-83
2022/04/27 02:09:40;;;;;;;18.63;13.45;;;4.10;99.90;;;;;;4936873;29;20059;-83
2022/04/27 02:12:07;;;;;;;19.77;12.93;;;4.20;99.90;;;;;;4937134;29;20090;-83
2022/04/27 02:14:32;;;;;;;19.92;12.80;;;4.20;99.90;;;;;;4904260;29;20064;-83
2022/04/27 02:16:58;;;;;;;17.27;12.30;;;4.90;99.90;;;;;;4920375;29;20059;-83
2022/04/27 02:19:23;;;;;;;16.83;12.50;;;4.30;99.90;;;;;;4935483;29;20063;-83
2022/04/27 02:21:49;;;;;;;17.50;12.82;;;4.40;99.90;;;;;;4937061;29;20043;-84
2022/04/27 02:24:15;;;;;;;18.15;13.50;;;4.40;99.90;;;;;;4936333;29;20051;-83
2022/04/27 02:26:42;;;;;;;24.50;12.27;;;5.30;99.90;;;;;;4935242;29;20650;-83
2022/04/27 02:29:09;;;;;;;21.40;13.15;;;4.50;99.90;;;;;;4936549;29;20055;-83
2022/04/27 02:31:34;;;;;;;21.15;12.68;;;4.60;99.90;;;;;;4936946;29;20051;-83
2022/04/27 02:34:00;;;;;;;17.38;11.73;;;4.60;99.90;;;;;;4936423;29;20055;-83
2022/04/27 02:36:26;;;;;;;16.85;11.80;;;4.70;99.90;;;;;;4935487;29;20043;-83
2022/04/27 02:38:52;;;;;;;18.35;11.43;;;4.70;99.90;;;;;;4936119;29;20091;-84
2022/04/27 02:41:17;;;;;;;16.63;11.02;;;4.70;99.90;;;;;;4936286;29;20051;-84
2022/04/27 02:43:43;;;;;;;17.45;11.40;;;4.70;99.90;;;;;;4935329;29;20516;-82
2022/04/27 02:46:09;;;;;;;18.30;10.88;;;4.80;99.90;;;;;;4935960;29;20544;-82
2022/04/27 02:48:34;;;;;;;13.98;11.25;;;4.80;99.90;;;;;;4936425;29;20509;-82
2022/04/27 02:53:44;;;;;;;17.33;11.77;;;4.90;99.90;;;;;;4934996;29;20294;-82
2022/04/27 02:56:10;;;;;;;16.23;11.20;;;4.90;99.90;;;;;;4934812;29;20056;-82
2022/04/27 02:58:36;;;;;;;15.95;11.05;;;4.90;99.90;;;;;;4935249;29;20067;-82
2022/04/27 03:01:01;;;;;;;17.25;11.98;;;5.00;99.90;;;;;;4919019;29;20484;-83
2022/04/27 03:03:27;;;;;;;20.05;11.88;;;5.30;99.90;;;;;;4934409;29;20047;-82
2022/04/27 03:05:53;;;;;;;21.70;12.05;;;5.80;99.90;;;;;;4935093;29;20553;-83
2022/04/27 03:08:18;;;;;;;19.20;11.60;;;5.00;99.90;;;;;;4935889;29;20047;-81
2022/04/27 03:10:47;;;;;;;14.95;11.13;;;5.70;99.90;;;;;;4933949;29;20051;-81
2022/04/27 03:13:12;;;;;;;18.17;11.68;;;5.10;99.90;;;;;;4934585;29;20471;-81
2022/04/27 03:15:38;;;;;;;16.48;11.77;;;5.10;99.90;;;;;;4934992;29;20083;-81
2022/04/27 03:18:21;;;;;;;17.52;11.70;;;5.30;99.90;;;;;;4935144;29;20048;-80
2022/04/27 03:20:48;;;;;;;15.23;11.00;;;5.70;99.90;;;;;;4920874;29;20063;-81
2022/04/27 03:23:15;;;;;;;21.35;11.20;;;5.20;99.90;;;;;;4935893;29;20058;-81
2022/04/27 03:25:40;;;;;;;15.52;11.35;;;5.20;99.90;;;;;;4918438;29;20055;-82
2022/04/27 03:28:06;;;;;;;14.82;11.70;;;5.20;99.90;;;;;;4934433;29;20488;-82
2022/04/27 03:30:32;;;;;;;17.58;12.00;;;5.30;99.90;;;;;;4934968;29;20047;-82
2022/04/27 03:32:59;;;;;;;17.52;11.65;;;5.20;99.90;;;;;;4918493;29;20047;-82
2022/04/27 03:35:26;;;;;;;17.33;11.13;;;6.00;99.90;;;;;;4934074;29;20131;-82
2022/04/27 03:37:52;;;;;;;19.30;11.80;;;5.30;99.90;;;;;;4935271;29;20062;-82
2022/04/27 03:40:21;;;;;;;20.63;11.90;;;5.30;99.90;;;;;;4918428;29;20408;-82
2022/04/27 03:42:50;;;;;;;15.23;11.85;;;5.30;99.90;;;;;;4934732;29;20636;-82
2022/04/27 03:45:19;;;;;;;17.02;11.80;;;5.30;99.90;;;;;;4935548;29;20039;-82
2022/04/27 03:47:48;;;;;;;20.52;12.90;;;5.40;99.90;;;;;;4933369;29;20083;-83
2022/04/27 03:50:14;;;;;;;20.88;13.05;;;5.40;99.90;;;;;;4946654;29;20055;-81
2022/04/27 03:52:40;;;;;;;19.63;12.93;;;5.60;99.90;;;;;;4939739;29;20560;-81
2022/04/27 03:55:06;;;;;;;20.80;13.35;;;6.40;99.90;;;;;;4935328;29;20064;-81
2022/04/27 03:57:32;;;;;;;17.15;12.93;;;5.40;99.90;;;;;;4950049;29;20052;-81
2022/04/27 03:59:58;;;;;;;18.50;14.02;;;5.90;99.90;;;;;;4955197;29;20124;-81
2022/04/27 04:02:23;;;;;;;18.70;13.15;;;5.50;99.90;;;;;;4953134;28;20484;-82
2022/04/27 04:04:49;;;;;;;20.83;14.20;;;5.50;99.90;;;;;;4935851;29;20044;-82
2022/04/27 04:07:15;;;;;;;18.60;13.52;;;5.50;99.90;;;;;;4934726;29;20232;-82
2022/04/27 04:09:40;;;;;;;22.42;14.05;;;5.50;99.90;;;;;;4934348;29;20052;-82
2022/04/27 04:12:06;;;;;;;22.00;13.52;;;5.50;99.90;;;;;;4917800;29;20170;-82
2022/04/27 04:14:32;;;;;;;20.08;13.57;;;5.50;99.90;;;;;;4918337;29;20496;-82
2022/04/27 04:16:58;;;;;;;19.30;13.30;;;6.10;99.90;;;;;;4934312;29;20054;-82
2022/04/27 04:19:24;;;;;;;21.70;13.85;;;6.50;99.90;;;;;;4917922;29;20504;-81
2022/04/27 04:21:49;;;;;;;18.95;13.80;;;5.60;99.90;;;;;;4933273;29;20052;-82
2022/04/27 04:24:15;;;;;;;18.13;13.35;;;5.50;99.90;;;;;;4918455;29;20059;-81
2022/04/27 04:29:26;;;;;;;;;;;5.60;99.90;;;;;;4921098;29;20406;-82
2022/04/27 04:31:51;;;;;;;19.27;14.35;;;5.60;99.90;;;;;;4933367;29;19923;-81
2022/04/27 04:34:17;;;;;;;21.25;14.00;;;5.60;99.90;;;;;;4934632;29;20061;-81
2022/04/27 04:36:43;;;;;;;20.17;14.23;;;5.90;99.90;;;;;;4916173;29;20098;-82
2022/04/27 04:39:09;;;;;;;17.65;13.98;;;5.70;99.90;;;;;;4933929;29;20087;-82
2022/04/27 04:41:35;;;;;;;20.50;14.02;;;5.70;99.90;;;;;;4932829;29;20073;-82
2022/04/27 04:44:00;;;;;;;24.80;14.13;;;6.80;99.90;;;;;;4933078;29;20059;-82
2022/04/27 04:46:26;;;;;;;18.75;14.50;;;5.80;99.90;;;;;;4932744;29;20082;-82
2022/04/27 04:48:52;;;;;;;22.05;14.13;;;6.40;99.90;;;;;;4932173;29;20103;-82
2022/04/27 04:51:17;;;;;;;20.33;13.18;;;6.40;99.90;;;;;;4932500;29;20055;-81
2022/04/27 04:53:43;;;;;;;19.67;13.82;;;5.80;99.90;;;;;;4933172;29;20447;-82
2022/04/27 04:56:09;;;;;;;21.40;13.45;;;5.80;99.90;;;;;;4933113;29;20059;-82
2022/04/27 04:58:34;;;;;;;17.27;13.50;;;5.80;99.90;;;;;;4932718;29;20117;-82
2022/04/27 05:01:01;;;;;;;18.02;13.93;;;5.90;99.90;;;;;;4932275;29;20059;-82
2022/04/27 05:03:27;;;;;;;19.58;13.90;;;6.70;99.90;;;;;;4916945;29;20051;-82
2022/04/27 05:05:53;;;;;;;24.33;14.30;;;5.90;99.90;;;;;;4915913;29;20059;-82
2022/04/27 05:08:18;;;;;;;19.20;13.45;;;6.80;99.90;;;;;;4916100;29;20051;-82
2022/04/27 05:10:44;;;;;;;17.65;14.20;;;6.00;99.90;;;;;;4931894;29;20070;-81
2022/04/27 05:13:10;;;;;;;21.13;14.70;;;6.00;99.90;;;;;;4932594;29;20396;-82
2022/04/27 05:15:35;;;;;;;19.67;13.93;;;6.10;99.90;;;;;;4916471;29;20052;-81
2022/04/27 05:18:01;;;;;;;21.63;13.98;;;6.10;99.90;;;;;;4936952;29;20102;-82
2022/04/27 05:20:27;;;;;;;18.33;14.25;;;6.20;99.90;;;;;;4936202;29;20563;-82
2022/04/27 05:22:53;;;;;;;18.92;13.90;;;6.70;99.90;;;;;;4936654;29;20414;-81
2022/04/27 05:25:18;;;;;;;16.95;12.73;;;6.20;99.90;;;;;;4936576;29;20044;-81
2022/04/27 05:27:44;;;;;;;18.25;14.02;;;6.60;99.90;;;;;;4935216;29;20048;-81
2022/04/27 05:32:55;;;;;;;18.60;12.63;;;6.40;99.90;;;;;;4922074;29;20067;-82
2022/04/27 05:35:21;;;;;;;23.45;15.00;;;6.40;99.90;;;;;;4935419;29;20532;-82
2022/04/27 05:37:47;;;;;;;20.60;13.82;;;6.50;99.90;;;;;;4935118;29;20135;-82
2022/04/27 05:40:13;;;;;;;20.45;13.73;;;6.50;99.90;;;;;;4935629;29;20472;-82
2022/04/27 05:42:39;;;;;;;21.05;13.20;;;6.60;99.90;;;;;;4936647;29;20043;-82
2022/04/27 05:45:06;;;;;;;20.30;13.75;;;6.60;99.90;;;;;;4935418;29;20059;-82
2022/04/27 05:47:31;;;;;;;21.40;13.35;;;6.70;99.90;;;;;;4919747;29;20051;-82
2022/04/27 05:49:57;;;;;;;18.08;13.52;;;6.90;99.90;;;;;;4934564;29;20094;-82
2022/04/27 05:52:23;;;;;;;21.98;13.75;;;6.70;99.90;;;;;;4935354;29;20464;-82
2022/04/27 05:54:48;;;;;;;20.83;13.20;;;7.10;99.90;;;;;;4934740;29;20539;-81
2022/04/27 05:57:14;;;;;;;20.52;13.43;;;7.00;99.90;;;;;;4903309;29;20056;-82
2022/04/27 05:59:40;;;;;;;18.65;12.68;;;6.90;99.90;;;;;;4919416;29;20055;-82
2022/04/27 06:02:06;;;;;;;20.45;12.70;;;7.60;99.90;;;;;;4919074;29;20379;-82
2022/04/27 06:04:31;;;;;;;17.13;12.73;;;7.00;99.90;;;;;;4919759;29;20556;-82
2022/04/27 06:06:57;;;;;;;28.40;15.45;;;7.80;99.90;;;;;;4936073;29;20052;-82
2022/04/27 06:09:23;;;;;;;16.65;13.18;;;7.30;99.90;;;;;;4935399;29;20048;-82
2022/04/27 06:11:48;;;;;;;17.45;12.73;;;8.40;99.90;;;;;;4935921;29;20056;-82
2022/04/27 06:14:14;;;;;;;21.55;12.65;;;7.30;99.90;;;;;;4935290;29;20190;-82
2022/04/27 06:16:40;;;;;;;17.98;12.45;;;7.40;99.90;;;;;;4903175;29;20113;-82
2022/04/27 06:19:05;;;;;;;13.52;11.07;;;7.50;99.90;;;;;;4955236;29;20062;-80
2022/04/27 06:21:32;;;;;;;17.48;10.52;;;7.60;99.90;;;;;;4958171;29;20047;-82
2022/04/27 06:23:58;;;;;;;14.35;10.40;;;7.60;99.90;;;;;;4946454;29;20051;-81
2022/04/27 06:26:24;;;;;;;15.70;10.80;;;7.70;99.90;;;;;;4919763;29;20480;-82
2022/04/27 06:28:51;;;;;;;13.23;10.07;;;7.70;99.90;;;;;;4933764;29;20043;-81
2022/04/27 06:31:18;;;;;;;12.48;10.07;;;7.80;99.90;;;;;;4935101;29;20068;-82
2022/04/27 06:33:43;;;;;;;12.43;9.50;;;7.90;99.90;;;;;;4935167;29;20090;-82
2022/04/27 06:36:09;;;;;;;17.23;9.63;;;8.60;99.90;;;;;;4935664;29;20448;-82
2022/04/27 06:38:34;;;;;;;10.10;9.02;;;8.00;99.90;;;;;;4934280;29;20054;-82
2022/04/27 06:41:02;;;;;;;13.52;8.30;;;8.10;99.90;;;;;;4933613;29;20063;-82
2022/04/27 06:43:27;;;;;;;11.63;9.13;;;8.20;99.90;;;;;;4934489;29;20086;-82
2022/04/27 06:45:53;;;;;;;14.88;9.27;;;8.20;99.90;;;;;;4934003;29;20066;-82
2022/04/27 06:48:19;;;;;;;16.17;9.93;;;8.90;99.90;;;;;;4935906;29;20051;-82
2022/04/27 06:50:44;;;;;;;16.30;10.23;;;8.30;99.90;;;;;;4940354;29;20055;-81
2022/04/27 06:53:10;;;;;;;10.77;8.75;;;9.00;99.90;;;;;;4941759;29;20288;-81
2022/04/27 06:55:36;;;;;;;12.95;8.57;;;8.40;99.90;;;;;;4935373;29;20081;-81
2022/04/27 06:58:02;;;;;;;11.57;9.18;;;8.40;99.90;;;;;;4908527;29;20095;-81
2022/04/27 07:00:28;;;;;;;13.10;8.90;;;8.50;99.90;;;;;;4924357;29;20051;-81
2022/04/27 07:02:53;;;;;;;11.00;9.32;;;8.60;99.90;;;;;;4934722;29;20048;-81
2022/04/27 07:05:20;;;;;;;11.50;9.02;;;8.60;99.90;;;;;;4918816;29;20048;-81
2022/04/27 07:07:46;;;;;;;13.13;8.50;;;8.70;99.90;;;;;;4936092;29;20048;-81
2022/04/27 07:10:14;;;;;;;11.60;8.30;;;8.70;99.90;;;;;;4902829;29;20047;-82
2022/04/27 07:12:39;;;;;;;11.63;8.13;;;8.80;99.90;;;;;;4918916;29;20052;-82
2022/04/27 07:15:06;;;;;;;12.05;8.27;;;8.90;99.90;;;;;;4918428;29;20098;-82
2022/04/27 07:17:32;;;;;;;11.85;7.85;;;8.90;99.90;;;;;;4902703;29;20048;-82
2022/04/27 07:19:58;;;;;;;12.38;8.07;;;9.10;99.90;;;;;;4933824;29;20069;-81
2022/04/27 07:22:23;;;;;;;8.95;7.38;;;9.20;99.90;;;;;;4935143;29;20056;-82
2022/04/27 07:24:49;;;;;;;12.02;8.40;;;9.30;99.90;;;;;;4934075;29;20043;-82
2022/04/27 07:27:16;;;;;;;8.23;7.07;;;9.40;99.90;;;;;;4934500;29;20051;-82
2022/04/27 07:29:42;;;;;;;7.57;6.70;;;9.40;99.90;;;;;;4934195;29;20131;-82
2022/04/27 07:32:07;;;;;;;9.70;6.40;;;9.50;99.90;;;;;;4933407;29;20130;-82
2022/04/27 07:34:33;;;;;;;10.43;6.05;;;9.60;99.90;;;;;;4933789;29;20052;-82
2022/04/27 07:37:01;;;;;;;7.95;6.03;;;9.70;99.90;;;;;;4917239;29;20213;-82
2022/04/27 07:39:26;;;;;;;9.27;6.25;;;9.70;99.90;;;;;;4913009;29;20051;-82
2022/04/27 07:41:52;;;;;;;9.48;5.80;;;10.00;99.90;;;;;;4933890;29;20052;-82
2022/04/27 07:44:18;;;;;;;6.90;4.82;;;9.80;99.90;;;;;;4932844;29;20058;-82
2022/04/27 07:46:47;;;;;;;7.05;4.00;;;10.00;99.90;;;;;;4932844;29;20044;-82
2022/04/27 07:49:16;;;;;;;3.75;2.30;;;10.00;99.90;;;;;;4932955;29;20040;-82
2022/04/27 07:51:42;;;;;;;5.72;2.10;;;10.20;99.90;;;;;;4916940;29;20421;-82
2022/04/27 07:54:07;;;;;;;3.42;2.05;;;10.20;99.90;;;;;;4934351;29;20048;-83
2022/04/27 07:56:33;;;;;;;4.20;1.90;;;10.30;99.90;;;;;;4932327;29;20500;-82
2022/04/27 07:58:59;;;;;;;4.93;1.95;;;10.40;99.90;;;;;;4911140;29;20059;-81
2022/04/27 08:01:24;;;;;;;5.00;2.13;;;10.50;99.90;;;;;;4934060;29;20055;-81
2022/04/27 08:03:50;;;;;;;3.97;2.10;;;10.40;99.90;;;;;;4933986;29;20051;-82
2022/04/27 08:06:16;;;;;;;4.70;1.90;;;10.60;99.90;;;;;;4917459;29;20048;-82
2022/04/27 08:08:41;;;;;;;4.88;1.90;;;10.80;99.90;;;;;;4934196;29;20051;-82
2022/04/27 08:11:09;;;;;;;4.47;1.80;;;10.90;99.90;;;;;;4932900;29;20468;-82
2022/04/27 08:13:35;;;;;;;3.45;1.75;;;11.00;99.90;;;;;;4916920;29;20133;-82
2022/04/27 08:16:01;;;;;;;2.80;1.75;;;11.00;99.90;;;;;;4933347;29;20059;-82
2022/04/27 08:18:27;;;;;;;2.85;1.67;;;11.10;99.90;;;;;;4933081;29;20386;-82
2022/04/27 08:23:40;;;;;;;2.85;2.17;;;11.20;99.90;;;;;;4932924;29;20056;-82
2022/04/27 08:26:06;;;;;;;3.13;1.50;;;11.10;99.90;;;;;;4932492;29;20063;-81
2022/04/27 08:28:32;;;;;;;2.45;1.60;;;11.10;99.90;;;;;;4931748;29;20051;-81
2022/04/27 08:30:58;;;;;;;4.35;2.30;;;11.00;99.90;;;;;;4932230;29;20059;-82
2022/04/27 08:33:24;;;;;;;5.28;1.80;;;11.10;99.90;;;;;;4915432;29;20047;-82
2022/04/27 08:35:50;;;;;;;3.67;1.90;;;11.20;99.90;;;;;;4900231;29;20103;-82
2022/04/27 08:38:16;;;;;;;2.42;1.80;;;11.20;99.90;;;;;;4890263;29;20056;-82
2022/04/27 08:40:43;;;;;;;3.38;2.10;;;11.40;99.90;;;;;;4931921;29;20055;-82
2022/04/27 08:43:11;;;;;;;5.25;1.63;;;11.20;99.90;;;;;;4932145;29;20051;-81
2022/04/27 08:45:38;;;;;;;2.28;1.63;;;11.10;99.90;;;;;;4933090;29;20122;-81
2022/04/27 08:48:04;;;;;;;3.33;1.70;;;11.20;99.90;;;;;;4916392;29;20059;-83
2022/04/27 08:50:30;;;;;;;2.80;1.75;;;11.40;99.90;;;;;;4931457;29;20126;-82
2022/04/27 08:52:55;;;;;;;1.90;1.70;;;11.40;99.90;;;;;;4932759;29;20132;-82
2022/04/27 08:55:22;;;;;;;2.85;1.98;;;11.50;99.90;;;;;;4916371;29;20062;-82
2022/04/27 08:57:48;;;;;;;2.55;1.75;;;11.40;99.90;;;;;;4914787;29;20060;-82
2022/04/27 09:00:16;;;;;;;3.30;1.80;;;11.70;99.90;;;;;;4929970;29;20560;-82
2022/04/27 09:02:41;;;;;;;3.92;2.03;;;11.70;99.90;;;;;;4911379;29;20056;-82
2022/04/27 09:05:11;;;;;;;2.35;1.80;;;11.90;99.90;;;;;;4914268;29;20052;-81
2022/04/27 09:07:38;;;;;;;4.00;2.00;;;12.10;99.90;;;;;;4930520;29;20114;-82
2022/04/27 09:10:05;;;;;;;4.00;2.20;;;12.00;99.90;;;;;;4921422;29;20103;-84
2022/04/27 09:12:31;;;;;;;4.65;1.85;;;12.10;99.90;;;;;;4929561;29;20044;-84
2022/04/27 09:15:07;;;;;;;3.22;1.92;;;12.30;99.90;;;;;;4916472;29;20104;-84
2022/04/27 09:23:02;;;;;;;3.78;2.25;;;12.50;99.90;;;;;;4917736;29;20055;-83
2022/04/27 09:25:35;;;;;;;5.75;2.33;;;12.40;99.90;;;;;;4929771;29;20059;-84
2022/04/27 09:28:04;;;;;;;5.32;2.20;;;12.40;99.90;;;;;;4898778;29;20489;-82
2022/04/27 09:30:33;;;;;;;5.00;2.10;;;12.30;99.90;;;;;;4913580;29;20892;-83
2022/04/27 09:32:59;;;;;;;5.40;2.67;;;12.40;99.90;;;;;;4930497;29;20464;-83
2022/04/27 09:35:35;;;;;;;2.80;1.83;;;12.00;99.90;;;;;;4908557;29;20050;-83
2022/04/27 09:38:16;;;;;;;3.20;2.20;;;12.20;99.90;;;;;;4914704;29;20095;-82
2022/04/27 09:40:49;;;;;;;6.15;2.42;;;12.20;99.90;;;;;;4932190;29;20087;-82
2022/04/27 09:43:15;;;;;;;4.57;2.10;;;12.00;99.90;;;;;;4930495;29;20062;-82
2022/04/27 09:45:42;;;;;;;4.90;2.47;;;12.30;99.90;;;;;;4915030;29;20114;-82
2022/04/27 09:48:11;;;;;;;4.90;2.10;;;12.50;99.90;;;;;;4930242;29;20059;-82
2022/04/27 09:50:50;;;;;;;3.70;1.90;;;12.40;99.90;;;;;;4931832;29;20056;-82
2022/04/27 09:53:16;;;;;;;3.20;2.10;;;12.40;99.90;;;;;;4940331;29;20052;-81
2022/04/27 09:55:54;;;;;;;5.47;2.40;;;12.20;99.90;;;;;;4917676;29;20067;-82
2022/04/27 09:58:20;;;;;;;6.35;2.28;;;12.50;99.90;;;;;;4901042;29;20131;-82
2022/04/27 10:00:48;;;;;;;5.38;2.05;;;12.50;99.90;;;;;;4937616;29;20027;-82
2022/04/27 10:03:16;;;;;;;7.28;2.58;;;12.40;99.90;;;;;;4954986;28;20047;-81
2022/04/27 10:05:42;;;;;;;3.83;1.92;;;12.30;99.90;;;;;;4946707;29;20080;-82
2022/04/27 10:08:08;;;;;;;5.63;2.58;;;12.60;99.90;;;;;;4936440;29;20134;-83
2022/04/27 10:10:41;;;;;;;6.38;2.03;;;12.50;99.90;;;;;;4934265;29;20054;-83
2022/04/27 10:13:11;;;;;;;4.30;2.20;;;12.50;99.90;;;;;;4918961;29;20067;-81
2022/04/27 10:15:47;;;;;;;3.05;2.13;;;12.30;99.90;;;;;;4916749;29;20047;-81
2022/04/27 10:18:16;;;;;;;5.68;2.60;;;12.40;99.90;;;;;;4901895;29;20058;-81
2022/04/27 10:20:43;;;;;;;5.55;2.88;;;12.50;99.90;;;;;;4886603;29;20108;-82
2022/04/27 10:23:20;;;;;;;3.92;2.30;;;12.50;99.90;;;;;;4887151;29;20421;-82
2022/04/27 10:26:04;;;;;;;4.45;2.13;;;12.40;99.90;;;;;;4917671;29;20405;-83
2022/04/27 10:28:30;;;;;;;5.70;2.22;;;12.60;99.90;;;;;;4932689;29;20113;-81
2022/04/27 10:30:56;;;;;;;7.55;2.88;;;12.50;99.90;;;;;;4933499;29;20087;-82
2022/04/27 10:33:52;;;;;;;4.05;2.20;;;12.60;99.90;;;;;;4932464;29;20132;-82
2022/04/27 10:36:21;;;;;;;4.72;2.20;;;12.40;99.90;;;;;;4888452;29;20119;-82
2022/04/27 10:39:15;;;;;;;4.40;2.40;;;12.60;99.90;;;;;;4932779;29;20044;-82
2022/04/27 10:41:54;;;;;;;6.50;2.20;;;12.40;99.90;;;;;;4930169;29;20062;-82
2022/04/27 10:44:20;;;;;;;5.43;3.00;;;12.50;99.90;;;;;;4930609;29;20055;-81
2022/04/27 10:46:46;;;;;;;5.90;2.30;;;12.50;99.90;;;;;;4916126;29;20051;-82
2022/04/27 10:49:28;;;;;;;6.47;2.38;;;12.80;99.90;;;;;;4917636;29;20044;-83
2022/04/27 10:52:04;;;;;;;5.35;2.67;;;12.70;99.90;;;;;;4902019;29;20066;-82
2022/04/27 10:54:34;;;;;;;5.78;2.22;;;13.00;99.90;;;;;;4931613;29;20048;-82
2022/04/27 10:57:15;;;;;;;4.65;2.22;;;13.20;99.90;;;;;;4930542;29;20071;-81
2022/04/27 10:59:51;;;;;;;4.70;2.45;;;13.00;99.90;;;;;;4929909;29;20055;-80
2022/04/27 11:02:39;;;;;;;8.32;2.70;;;13.60;99.90;;;;;;4915407;29;20055;-82
2022/04/27 11:05:11;;;;;;;5.07;2.08;;;13.60;99.90;;;;;;4915222;29;20381;-80
2022/04/27 11:07:42;;;;;;;3.92;2.03;;;13.80;99.90;;;;;;4927350;29;20087;-81
2022/04/27 11:10:18;;;;;;;8.63;2.28;;;13.30;99.90;;;;;;4914433;29;20159;-80
2022/04/27 11:12:53;;;;;;;4.40;2.30;;;13.20;99.90;;;;;;4913956;29;20055;-80
2022/04/27 11:15:21;;;;;;;4.82;2.35;;;13.00;99.90;;;;;;4882483;29;20678;-81
2022/04/27 11:18:01;;;;;;;11.73;2.95;;;13.20;99.90;;;;;;4898292;29;20485;-80
2022/04/27 11:20:31;;;;;;;4.88;2.45;;;12.90;99.90;;;;;;4914550;29;20048;-82
2022/04/27 11:22:57;;;;;;;6.32;2.35;;;12.90;99.90;;;;;;4929342;29;20486;-81
2022/04/27 11:25:31;;;;;;;6.70;2.58;;;13.10;99.90;;;;;;4914481;29;20040;-81
2022/04/27 11:27:57;;;;;;;11.20;3.03;;;13.20;99.90;;;;;;4906513;29;20405;-81
2022/04/27 11:30:23;;;;;;;5.88;2.90;;;13.20;99.90;;;;;;4899293;29;20044;-82
2022/04/27 11:32:49;;;;;;;5.07;2.78;;;12.90;99.90;;;;;;4916296;29;20063;-79
2022/04/27 11:35:15;;;;;;;6.78;3.05;;;13.50;99.90;;;;;;4931210;29;20512;-82
2022/04/27 11:37:41;;;;;;;6.47;3.03;;;13.50;99.90;;;;;;4916346;29;20051;-81
2022/04/27 11:40:17;;;;;;;6.30;2.85;;;13.20;99.90;;;;;;4916615;29;20465;-81
2022/04/27 11:42:47;;;;;;;8.80;3.28;;;13.00;99.90;;;;;;4901036;29;20056;-81
2022/04/27 11:45:18;;;;;;;7.75;3.42;;;12.80;99.90;;;;;;4916766;29;20044;-79
2022/04/27 11:47:44;;;;;;;8.48;3.55;;;12.90;99.90;;;;;;4916316;29;20071;-81
2022/04/27 11:50:10;;;;;;;10.20;3.40;;;12.70;99.90;;;;;;4916911;29;20044;-81
2022/04/27 11:52:41;;;;;;;8.73;3.50;;;12.50;99.90;;;;;;4933216;29;20266;-82
2022/04/27 11:55:08;;;;;;;9.27;3.20;;;12.60;99.90;;;;;;4933003;29;20932;-82
2022/04/27 11:57:34;;;;;;;8.60;3.50;;;12.60;99.90;;;;;;4933022;29;20059;-81
2022/04/27 12:00:02;;;;;;;7.47;3.08;;;13.00;99.90;;;;;;4916611;29;20115;-82
2022/04/27 12:02:28;;;;;;;8.85;3.08;;;12.60;99.90;;;;;;4934716;29;20489;-81
2022/04/27 12:04:57;;;;;;;10.35;3.38;;;12.70;99.90;;;;;;4918370;29;20055;-80
2022/04/27 12:07:23;;;;;;;11.75;3.22;;;12.60;99.90;;;;;;4918227;29;20051;-80
2022/04/27 12:10:08;;;;;;;10.50;3.95;;;12.80;99.90;;;;;;4932903;29;20047;-80
2022/04/27 12:12:34;;;;;;;12.50;3.35;;;13.00;99.90;;;;;;4898489;29;20508;-82
2022/04/27 12:15:07;;;;;;;11.80;3.78;;;13.10;99.90;;;;;;4900703;29;20056;-81
2022/04/27 12:17:47;;;;;;;12.23;3.35;;;12.70;99.90;;;;;;4929961;29;20086;-82
2022/04/27 12:20:29;;;;;;;10.98;3.88;;;13.10;99.90;;;;;;4907541;29;20050;-81
2022/04/27 12:23:00;;;;;;;10.00;3.08;;;12.30;99.90;;;;;;4950967;29;20056;-82
2022/04/27 12:25:45;;;;;;;8.50;3.35;;;13.10;99.90;;;;;;4934178;29;20326;-80
2022/04/27 12:28:15;;;;;;;9.80;3.53;;;12.50;99.90;;;;;;4935361;29;20048;-81
2022/04/27 12:30:52;;;;;;;11.68;3.22;;;12.60;99.90;;;;;;4933942;29;20048;-81
2022/04/27 12:33:25;;;;;;;12.93;3.95;;;12.80;99.90;;;;;;4918356;29;20055;-82
2022/04/27 12:39:20;;;;;;;9.07;3.03;;;12.70;99.90;;;;;;4918854;29;20067;-81
2022/04/27 12:41:47;;;;;;;8.30;3.33;;;13.30;99.90;;;;;;4892416;29;20404;-80
2022/04/27 12:44:16;;;;;;;8.35;2.72;;;13.40;99.90;;;;;;4914829;29;20484;-81
2022/04/27 12:46:58;;;;;;;9.82;3.53;;;13.50;99.90;;;;;;4932832;29;20040;-81
2022/04/27 12:49:28;;;;;;;11.20;3.60;;;13.50;99.90;;;;;;4933478;29;20044;-81
2022/04/27 12:51:54;;;;;;;12.48;4.13;;;13.50;99.90;;;;;;4931659;29;20060;-83
2022/04/27 12:54:32;;;;;;;10.25;3.30;;;13.30;99.90;;;;;;4946615;29;20082;-82
2022/04/27 12:56:58;;;;;;;8.02;3.63;;;13.00;99.90;;;;;;4919244;29;20059;-83
2022/04/27 12:59:24;;;;;;;13.65;2.95;;;13.30;99.90;;;;;;4917451;29;20043;-82
2022/04/27 13:01:57;;;;;;;7.55;2.85;;;13.60;99.90;;;;;;4911327;29;20463;-82
2022/04/27 13:04:23;;;;;;;10.23;3.40;;;13.70;99.90;;;;;;4932181;29;20508;-82
2022/04/27 13:06:48;;;;;;;12.77;3.80;;;13.90;99.90;;;;;;4933062;29;20043;-82
2022/04/27 13:11:58;;;;;;;8.15;2.67;;;13.70;99.90;;;;;;4932026;29;20063;-82